createdAt,value
2018-06-24T00:02:15.058Z,7.40
2018-06-24T00:04:43.605Z,7.43
2018-06-24T00:07:12.200Z,5.67
2018-06-24T00:09:41.382Z,4.83
2018-06-24T00:12:10.044Z,6.33
2018-06-24T00:14:38.468Z,5.97
2018-06-24T00:17:07.332Z,8.40
2018-06-24T00:19:36.331Z,11.10
2018-06-24T00:22:05.343Z,4.33
2018-06-24T00:24:33.806Z,7.87
2018-06-24T00:27:02.630Z,7.33
2018-06-24T00:29:31.162Z,9.53
2018-06-24T00:31:59.710Z,8.17
2018-06-24T00:34:28.356Z,7.60
2018-06-24T00:36:56.909Z,8.07
2018-06-24T00:39:25.414Z,3.97
2018-06-24T00:41:54.082Z,10.07
2018-06-24T00:44:22.589Z,6.30
2018-06-24T00:46:51.460Z,6.23
2018-06-24T00:49:20.062Z,8.57
2018-06-24T00:51:48.520Z,7.20
2018-06-24T00:54:17.006Z,9.87
2018-06-24T00:56:45.464Z,8.77
2018-06-24T00:59:25.450Z,6.47
2018-06-24T01:01:53.958Z,7.67
2018-06-24T01:04:22.380Z,10.03
2018-06-24T01:06:50.868Z,11.37
2018-06-24T01:09:19.664Z,9.20
2018-06-24T01:11:48.169Z,5.37
2018-06-24T01:14:16.850Z,10.07
2018-06-24T01:16:45.277Z,10.30
2018-06-24T01:19:13.776Z,8.73
2018-06-24T01:21:42.236Z,5.50
2018-06-24T01:24:10.639Z,9.37
2018-06-24T01:26:39.433Z,8.17
2018-06-24T01:29:08.332Z,11.30
2018-06-24T01:31:37.135Z,9.03
2018-06-24T01:34:05.683Z,12.47
2018-06-24T01:36:34.450Z,8.63
2018-06-24T01:39:02.683Z,8.67
2018-06-24T01:41:31.158Z,6.53
2018-06-24T01:43:59.775Z,7.57
2018-06-24T01:46:28.291Z,5.20
2018-06-24T01:48:56.993Z,9.73
2018-06-24T01:51:25.814Z,7.93
2018-06-24T01:53:54.746Z,8.67
2018-06-24T01:56:23.526Z,8.53
2018-06-24T01:58:51.736Z,6.90
2018-06-24T02:01:20.626Z,9.47
2018-06-24T02:03:49.100Z,8.07
2018-06-24T02:06:17.563Z,9.23
2018-06-24T02:08:46.444Z,11.30
2018-06-24T02:11:14.955Z,8.80
2018-06-24T02:13:43.940Z,11.23
2018-06-24T02:16:12.804Z,7.60
2018-06-24T02:18:41.262Z,13.27
2018-06-24T02:21:09.730Z,10.60
2018-06-24T02:23:38.230Z,4.30
2018-06-24T02:26:06.745Z,9.10
2018-06-24T02:28:35.748Z,8.27
2018-06-24T02:31:04.272Z,10.40
2018-06-24T02:33:33.080Z,6.90
2018-06-24T02:36:02.192Z,6.67
2018-06-24T02:38:31.016Z,8.57
2018-06-24T02:40:59.928Z,9.97
2018-06-24T02:43:28.366Z,9.07
2018-06-24T02:45:56.780Z,8.60
2018-06-24T02:48:25.407Z,8.07
2018-06-24T02:50:53.947Z,7.10
2018-06-24T02:53:22.502Z,7.93
2018-06-24T02:55:51.320Z,6.37
2018-06-24T02:58:19.700Z,9.30
2018-06-24T03:00:48.120Z,7.97
2018-06-24T03:03:16.601Z,8.43
2018-06-24T03:05:45.421Z,8.30
2018-06-24T03:08:14.236Z,6.57
2018-06-24T03:10:42.564Z,8.10
2018-06-24T03:13:11.338Z,9.27
2018-06-24T03:15:39.830Z,9.57
2018-06-24T03:18:08.547Z,9.87
2018-06-24T03:20:37.751Z,8.60
2018-06-24T03:23:06.312Z,8.97
2018-06-24T03:25:34.802Z,8.13
2018-06-24T03:28:03.701Z,11.70
2018-06-24T03:30:32.478Z,7.57
2018-06-24T03:33:01.234Z,9.23
2018-06-24T03:35:29.484Z,9.27
2018-06-24T03:37:58.571Z,10.00
2018-06-24T03:40:27.145Z,14.73
2018-06-24T03:42:55.927Z,8.87
2018-06-24T03:45:24.404Z,8.97
2018-06-24T03:47:52.859Z,7.37
2018-06-24T03:50:21.393Z,9.93
2018-06-24T03:52:50.650Z,8.13
2018-06-24T03:55:19.116Z,9.80
2018-06-24T03:57:48.222Z,9.47
2018-06-24T04:00:17.027Z,10.30
2018-06-24T04:02:45.581Z,8.23
2018-06-24T04:05:14.367Z,10.43
2018-06-24T04:07:42.946Z,12.07
2018-06-24T04:10:11.448Z,9.33
2018-06-24T04:12:40.689Z,7.03
2018-06-24T04:15:09.543Z,9.07
2018-06-24T04:17:38.353Z,8.40
2018-06-24T04:20:06.836Z,10.87
2018-06-24T04:22:35.408Z,8.73
2018-06-24T04:25:03.996Z,8.03
2018-06-24T04:27:32.782Z,7.87
2018-06-24T04:30:01.642Z,9.07
2018-06-24T04:32:30.343Z,11.67
2018-06-24T04:34:58.781Z,12.67
2018-06-24T04:37:27.526Z,8.47
2018-06-24T04:39:56.458Z,10.70
2018-06-24T04:42:25.382Z,9.23
2018-06-24T04:44:54.018Z,8.97
2018-06-24T04:47:22.926Z,10.53
2018-06-24T04:49:51.411Z,16.77
2018-06-24T04:52:20.303Z,10.20
2018-06-24T04:54:49.116Z,13.83
2018-06-24T04:57:17.627Z,11.90
2018-06-24T04:59:46.628Z,9.43
2018-06-24T05:02:15.128Z,12.50
2018-06-24T05:04:43.960Z,9.93
2018-06-24T05:07:12.664Z,10.60
2018-06-24T05:09:41.109Z,11.37
2018-06-24T05:12:09.867Z,8.77
2018-06-24T05:14:38.711Z,11.40
2018-06-24T05:17:07.180Z,10.83
2018-06-24T05:19:35.943Z,11.37
2018-06-24T05:22:04.465Z,8.23
2018-06-24T05:24:33.274Z,11.40
2018-06-24T05:27:01.756Z,7.47
2018-06-24T05:29:30.228Z,10.40
2018-06-24T05:31:58.769Z,7.73
2018-06-24T05:34:27.652Z,10.43
2018-06-24T05:36:56.155Z,9.50
2018-06-24T05:39:25.046Z,12.47
2018-06-24T05:41:53.626Z,11.57
2018-06-24T05:44:22.246Z,11.60
2018-06-24T05:46:50.766Z,9.67
2018-06-24T05:49:19.262Z,8.03
2018-06-24T05:51:48.020Z,11.13
2018-06-24T05:54:16.807Z,11.70
2018-06-24T05:56:45.385Z,14.43
2018-06-24T05:59:13.928Z,9.20
2018-06-24T06:01:42.738Z,12.37
2018-06-24T06:04:11.558Z,10.53
2018-06-24T06:06:40.098Z,13.93
2018-06-24T06:09:10.916Z,8.33
2018-06-24T06:11:39.404Z,12.10
2018-06-24T06:14:08.077Z,9.83
2018-06-24T06:16:36.667Z,12.50
2018-06-24T06:19:06.225Z,8.37
2018-06-24T06:21:34.869Z,15.43
2018-06-24T06:24:03.402Z,8.27
2018-06-24T06:26:32.081Z,8.67
2018-06-24T06:29:00.739Z,7.80
2018-06-24T06:31:29.798Z,9.23
2018-06-24T06:33:58.574Z,8.97
2018-06-24T06:36:28.685Z,10.67
2018-06-24T06:38:57.466Z,8.70
2018-06-24T06:41:26.174Z,7.37
2018-06-24T06:43:54.731Z,5.90
2018-06-24T06:46:23.214Z,10.50
2018-06-24T06:48:51.932Z,13.23
2018-06-24T06:51:20.632Z,8.27
2018-06-24T06:53:49.421Z,13.73
2018-06-24T06:56:17.889Z,6.77
2018-06-24T06:58:46.684Z,9.07
2018-06-24T07:01:15.196Z,9.20
2018-06-24T07:03:43.997Z,6.43
2018-06-24T07:06:12.696Z,8.87
2018-06-24T07:08:41.180Z,8.23
2018-06-24T07:11:09.701Z,8.43
2018-06-24T07:13:38.191Z,9.10
2018-06-24T07:16:06.648Z,11.10
2018-06-24T07:18:35.084Z,9.57
2018-06-24T07:21:03.934Z,7.03
2018-06-24T07:23:32.366Z,6.53
2018-06-24T07:26:01.148Z,8.50
2018-06-24T07:28:29.969Z,6.03
2018-06-24T07:30:58.728Z,8.20
2018-06-24T07:33:27.569Z,7.23
2018-06-24T07:35:56.093Z,7.30
2018-06-24T07:38:24.325Z,6.43
2018-06-24T07:40:52.765Z,9.67
2018-06-24T07:43:21.230Z,5.63
2018-06-24T07:45:49.709Z,9.43
2018-06-24T07:48:18.429Z,5.10
2018-06-24T07:50:46.939Z,8.50
2018-06-24T07:53:15.482Z,5.60
2018-06-24T07:55:44.042Z,8.03
2018-06-24T07:58:12.565Z,7.67
2018-06-24T08:00:41.140Z,5.10
2018-06-24T08:03:10.087Z,4.10
2018-06-24T08:05:39.023Z,5.23
2018-06-24T08:08:07.913Z,7.33
2018-06-24T08:10:36.412Z,3.57
2018-06-24T08:13:05.647Z,5.67
2018-06-24T08:15:34.085Z,4.37
2018-06-24T08:18:02.638Z,7.27
2018-06-24T08:20:31.421Z,4.83
2018-06-24T08:23:00.133Z,3.67
2018-06-24T08:25:28.610Z,2.70
2018-06-24T08:27:57.423Z,2.33
2018-06-24T08:30:25.868Z,2.30
2018-06-24T08:32:54.671Z,2.50
2018-06-24T08:35:23.441Z,2.70
2018-06-24T08:37:52.193Z,2.80
2018-06-24T08:40:21.005Z,2.00
2018-06-24T08:42:49.985Z,2.17
2018-06-24T08:45:18.457Z,2.33
2018-06-24T08:47:46.894Z,1.80
2018-06-24T08:50:15.367Z,2.87
2018-06-24T08:52:43.833Z,1.53
2018-06-24T08:55:12.623Z,1.70
2018-06-24T08:57:41.186Z,1.60
2018-06-24T09:00:10.018Z,3.93
2018-06-24T09:02:38.827Z,1.73
2018-06-24T09:05:07.413Z,2.43
2018-06-24T09:07:36.025Z,2.00
2018-06-24T09:10:04.274Z,2.20
2018-06-24T09:12:32.826Z,1.73
2018-06-24T09:15:01.562Z,4.07
2018-06-24T09:17:30.489Z,1.60
2018-06-24T09:19:58.954Z,2.00
2018-06-24T09:22:27.797Z,2.00
2018-06-24T09:24:56.256Z,2.97
2018-06-24T09:27:24.986Z,2.07
2018-06-24T09:29:53.412Z,1.87
2018-06-24T09:32:21.916Z,1.70
2018-06-24T09:34:50.356Z,2.77
2018-06-24T09:37:18.816Z,1.73
2018-06-24T09:39:47.764Z,2.67
2018-06-24T09:42:16.224Z,4.60
2018-06-24T09:44:44.722Z,3.87
2018-06-24T09:47:13.205Z,2.07
2018-06-24T09:49:41.764Z,2.27
2018-06-24T09:52:10.264Z,3.20
2018-06-24T09:54:38.739Z,3.30
2018-06-24T09:57:07.207Z,4.50
2018-06-24T09:59:35.987Z,7.10
2018-06-24T10:02:04.872Z,3.87
2018-06-24T10:04:33.388Z,4.17
2018-06-24T10:07:02.121Z,5.43
2018-06-24T10:09:30.917Z,3.83
2018-06-24T10:11:59.473Z,6.50
2018-06-24T10:14:28.335Z,6.80
2018-06-24T10:16:56.800Z,7.57
2018-06-24T10:19:25.268Z,5.17
2018-06-24T10:21:53.734Z,6.07
2018-06-24T10:24:22.548Z,5.67
2018-06-24T10:26:50.985Z,6.23
2018-06-24T10:29:19.467Z,5.87
2018-06-24T10:31:48.256Z,5.83
2018-06-24T10:34:16.700Z,6.93
2018-06-24T10:36:45.228Z,8.20
2018-06-24T10:39:13.820Z,6.77
2018-06-24T10:41:42.582Z,4.87
2018-06-24T10:44:11.078Z,8.47
2018-06-24T10:46:39.578Z,8.37
2018-06-24T10:49:07.994Z,5.00
2018-06-24T10:51:36.850Z,5.80
2018-06-24T10:54:05.438Z,3.73
2018-06-24T10:56:34.548Z,4.97
2018-06-24T10:59:03.136Z,5.50
2018-06-24T11:01:32.163Z,8.20
2018-06-24T11:04:00.969Z,4.40
2018-06-24T11:06:29.720Z,6.63
2018-06-24T11:08:58.853Z,6.10
2018-06-24T11:11:27.715Z,6.40
2018-06-24T11:13:56.709Z,4.63
2018-06-24T11:16:25.581Z,4.73
2018-06-24T11:18:54.121Z,4.70
2018-06-24T11:21:22.927Z,6.77
2018-06-24T11:23:51.422Z,3.47
2018-06-24T11:26:19.957Z,4.03
2018-06-24T11:28:48.563Z,4.43
2018-06-24T11:31:17.353Z,4.13
2018-06-24T11:33:46.203Z,5.17
2018-06-24T11:36:14.377Z,2.70
2018-06-24T11:38:42.922Z,5.13
2018-06-24T11:41:11.395Z,2.63
2018-06-24T11:43:39.863Z,2.27
2018-06-24T11:46:08.748Z,2.97
2018-06-24T11:48:37.530Z,2.80
2018-06-24T11:51:06.362Z,2.60
2018-06-24T11:53:34.831Z,2.50
2018-06-24T11:56:03.391Z,2.40
2018-06-24T11:58:32.167Z,2.77
2018-06-24T12:01:00.960Z,2.63
2018-06-24T12:03:29.415Z,2.50
2018-06-24T12:05:57.658Z,2.60
2018-06-24T12:08:26.375Z,3.00
2018-06-24T12:10:54.849Z,2.47
2018-06-24T12:13:23.329Z,2.53
2018-06-24T12:15:51.798Z,2.03
2018-06-24T12:18:20.402Z,2.03
2018-06-24T12:20:48.502Z,1.97
2018-06-24T12:23:16.969Z,1.70
2018-06-24T12:25:45.492Z,2.03
2018-06-24T12:28:14.000Z,2.10
2018-06-24T12:30:42.451Z,2.10
2018-06-24T12:33:11.219Z,2.23
2018-06-24T12:35:39.673Z,1.70
2018-06-24T12:38:08.817Z,1.90
2018-06-24T12:40:37.245Z,1.70
2018-06-24T12:43:06.031Z,1.03
2018-06-24T12:45:34.818Z,1.60
2018-06-24T12:48:03.326Z,1.47
2018-06-24T12:50:31.800Z,2.03
2018-06-24T12:53:00.294Z,1.50
2018-06-24T12:55:29.062Z,2.40
2018-06-24T12:57:58.082Z,1.10
2018-06-24T13:00:27.062Z,1.47
2018-06-24T13:02:55.721Z,1.60
2018-06-24T13:05:24.571Z,1.50
2018-06-24T13:07:53.072Z,1.50
2018-06-24T13:10:21.872Z,1.67
2018-06-24T13:12:50.488Z,1.90
2018-06-24T13:15:19.534Z,1.73
2018-06-24T13:17:48.033Z,1.70
2018-06-24T13:20:16.705Z,1.90
2018-06-24T13:22:45.263Z,2.40
2018-06-24T13:25:13.717Z,2.13
2018-06-24T13:27:42.191Z,2.63
2018-06-24T13:30:10.959Z,3.30
2018-06-24T13:32:39.407Z,3.07
2018-06-24T13:35:07.657Z,2.67
2018-06-24T13:37:36.519Z,3.57
2018-06-24T13:40:05.597Z,5.97
2018-06-24T13:42:34.667Z,3.20
2018-06-24T13:45:03.187Z,3.07
2018-06-24T13:47:31.655Z,3.30
2018-06-24T13:50:00.357Z,3.93
2018-06-24T13:52:28.927Z,4.27
2018-06-24T13:54:57.619Z,4.07
2018-06-24T13:57:26.469Z,4.10
2018-06-24T13:59:54.737Z,3.77
2018-06-24T14:02:23.321Z,4.60
2018-06-24T14:04:52.267Z,4.07
2018-06-24T14:07:21.315Z,5.03
2018-06-24T14:09:50.111Z,3.57
2018-06-24T14:12:18.595Z,3.83
2018-06-24T14:14:47.199Z,2.83
2018-06-24T14:17:15.899Z,2.30
2018-06-24T14:19:44.591Z,4.03
2018-06-24T14:22:13.442Z,3.07
2018-06-24T14:24:42.258Z,1.90
2018-06-24T14:27:11.313Z,2.57
2018-06-24T14:29:40.002Z,2.43
2018-06-24T14:32:08.565Z,2.40
2018-06-24T14:34:37.410Z,3.37
2018-06-24T14:37:05.989Z,4.33
2018-06-24T14:39:34.701Z,3.00
2018-06-24T14:42:03.199Z,2.80
2018-06-24T14:44:31.662Z,2.50
2018-06-24T14:47:00.225Z,3.10
2018-06-24T14:49:29.283Z,2.93
2018-06-24T14:51:57.461Z,4.10
2018-06-24T14:54:26.279Z,3.43
2018-06-24T14:56:54.730Z,3.13
2018-06-24T14:59:23.435Z,3.57
2018-06-24T15:01:51.977Z,3.07
2018-06-24T15:04:20.749Z,3.70
2018-06-24T15:06:49.581Z,3.00
2018-06-24T15:09:18.041Z,3.83
2018-06-24T15:11:46.553Z,3.47
2018-06-24T15:14:15.053Z,4.30
2018-06-24T15:16:43.545Z,3.33
2018-06-24T15:19:12.027Z,3.70
2018-06-24T15:21:40.720Z,4.73
2018-06-24T15:24:09.245Z,2.83
2018-06-24T15:26:38.322Z,3.80
2018-06-24T15:29:06.867Z,3.00
2018-06-24T15:31:35.503Z,4.63
2018-06-24T15:34:04.349Z,3.87
2018-06-24T15:36:33.195Z,4.23
2018-06-24T15:39:02.069Z,3.80
2018-06-24T15:41:30.561Z,4.93
2018-06-24T15:43:59.269Z,3.93
2018-06-24T15:46:28.017Z,21.93
2018-06-24T15:48:56.524Z,16.07
2018-06-24T15:51:25.387Z,3.63
2018-06-24T15:53:54.112Z,2.57
2018-06-24T15:56:22.884Z,2.73
2018-06-24T15:58:51.391Z,3.10
2018-06-24T16:01:19.885Z,4.83
2018-06-24T16:03:48.679Z,4.80
2018-06-24T16:06:17.131Z,5.10
2018-06-24T16:08:45.573Z,2.53
2018-06-24T16:11:13.807Z,4.43
2018-06-24T16:13:42.319Z,3.40
2018-06-24T16:16:10.825Z,2.67
2018-06-24T16:18:39.311Z,3.03
2018-06-24T16:21:07.964Z,3.50
2018-06-24T16:23:36.261Z,3.37
2018-06-24T16:26:04.888Z,6.10
2018-06-24T16:28:33.541Z,4.97
2018-06-24T16:31:02.097Z,3.33
2018-06-24T16:33:30.524Z,3.07
2018-06-24T16:35:59.007Z,4.00
2018-06-24T16:38:27.581Z,3.27
2018-06-24T16:40:56.033Z,4.60
2018-06-24T16:43:24.849Z,4.97
2018-06-24T16:45:53.363Z,4.87
2018-06-24T16:48:21.844Z,3.67
2018-06-24T16:50:50.609Z,5.30
2018-06-24T16:53:19.052Z,3.97
2018-06-24T16:55:47.844Z,3.47
2018-06-24T16:58:16.722Z,2.83
2018-06-24T17:00:45.215Z,4.43
2018-06-24T17:03:13.708Z,3.10
2018-06-24T17:05:42.527Z,4.20
2018-06-24T17:08:11.715Z,3.47
2018-06-24T17:10:40.293Z,4.43
2018-06-24T17:13:10.671Z,3.27
2018-06-24T17:15:39.420Z,4.53
2018-06-24T17:18:07.916Z,4.07
2018-06-24T17:20:36.412Z,4.13
2018-06-24T17:23:05.232Z,3.70
2018-06-24T17:25:33.713Z,3.03
2018-06-24T17:28:02.695Z,3.03
2018-06-24T17:30:34.585Z,5.17
2018-06-24T17:33:03.069Z,3.23
2018-06-24T17:35:31.582Z,3.73
2018-06-24T17:38:00.822Z,4.20
2018-06-24T17:40:29.343Z,3.00
2018-06-24T17:42:58.302Z,3.17
2018-06-24T17:45:27.145Z,5.87
2018-06-24T17:47:55.655Z,3.20
2018-06-24T17:50:24.135Z,3.10
2018-06-24T17:52:53.134Z,2.77
2018-06-24T17:55:22.244Z,3.67
2018-06-24T17:57:50.741Z,3.97
2018-06-24T18:00:19.321Z,6.10
2018-06-24T18:02:47.725Z,4.50
2018-06-24T18:05:16.408Z,5.80
2018-06-24T18:07:44.933Z,3.80
2018-06-24T18:10:13.352Z,5.97
2018-06-24T18:12:42.667Z,3.47
2018-06-24T18:15:11.121Z,6.10
2018-06-24T18:17:39.905Z,5.37
2018-06-24T18:20:08.849Z,3.43
2018-06-24T18:22:37.403Z,5.77
2018-06-24T18:25:06.155Z,4.77
2018-06-24T18:27:34.681Z,4.97
2018-06-24T18:30:03.220Z,5.43
2018-06-24T18:32:31.695Z,6.17
2018-06-24T18:35:00.204Z,6.40
2018-06-24T18:37:28.891Z,6.67
2018-06-24T18:39:57.641Z,3.83
2018-06-24T18:42:26.177Z,5.13
2018-06-24T18:44:54.829Z,8.43
2018-06-24T18:47:23.405Z,6.37
2018-06-24T18:49:51.891Z,4.43
2018-06-24T18:52:20.365Z,5.07
2018-06-24T18:54:48.909Z,6.33
2018-06-24T18:57:17.390Z,3.80
2018-06-24T18:59:46.174Z,6.20
2018-06-24T19:02:14.780Z,7.40
2018-06-24T19:04:43.285Z,6.33
2018-06-24T19:07:12.244Z,3.57
2018-06-24T19:09:40.990Z,4.37
2018-06-24T19:12:09.667Z,4.10
2018-06-24T19:14:38.471Z,5.93
2018-06-24T19:17:07.082Z,5.13
2018-06-24T19:19:35.527Z,5.80
2018-06-24T19:22:04.297Z,6.10
2018-06-24T19:24:33.385Z,3.43
2018-06-24T19:27:01.881Z,4.53
2018-06-24T19:29:30.379Z,5.37
2018-06-24T19:31:58.998Z,3.30
2018-06-24T19:34:27.546Z,5.33
2018-06-24T19:36:56.221Z,3.27
2018-06-24T19:39:24.778Z,4.07
2018-06-24T19:41:53.298Z,3.60
2018-06-24T19:44:21.833Z,5.17
2018-06-24T19:46:50.422Z,5.20
2018-06-24T19:49:18.919Z,5.70
2018-06-24T19:51:47.579Z,4.53
2018-06-24T19:54:16.305Z,4.37
2018-06-24T19:56:45.636Z,5.17
2018-06-24T19:59:14.404Z,4.73
2018-06-24T20:01:43.209Z,3.30
2018-06-24T20:04:11.734Z,2.90
2018-06-24T20:06:40.735Z,5.57
2018-06-24T20:09:10.560Z,6.03
2018-06-24T20:11:39.555Z,6.03
2018-06-24T20:14:08.667Z,4.47
2018-06-24T20:16:37.513Z,4.53
2018-06-24T20:19:06.260Z,3.57
2018-06-24T20:21:35.115Z,5.60
2018-06-24T20:24:03.771Z,9.53
2018-06-24T20:26:32.365Z,3.83
2018-06-24T20:29:01.305Z,4.33
2018-06-24T20:31:29.725Z,5.07
2018-06-24T20:33:58.214Z,5.30
2018-06-24T20:36:27.007Z,7.17
2018-06-24T20:38:55.582Z,5.47
2018-06-24T20:41:24.098Z,6.23
2018-06-24T20:43:52.589Z,5.93
2018-06-24T20:46:21.352Z,8.53
2018-06-24T20:48:49.917Z,9.17
2018-06-24T20:51:19.129Z,6.40
2018-06-24T20:53:48.019Z,12.77
2018-06-24T20:56:16.650Z,7.83
2018-06-24T20:58:45.210Z,8.67
2018-06-24T21:01:13.761Z,9.67
2018-06-24T21:03:42.234Z,8.07
2018-06-24T21:06:10.827Z,9.87
2018-06-24T21:08:39.309Z,6.97
2018-06-24T21:11:07.875Z,8.40
2018-06-24T21:13:36.424Z,7.73
2018-06-24T21:16:04.937Z,9.27
2018-06-24T21:18:33.472Z,6.97
2018-06-24T21:21:02.073Z,8.83
2018-06-24T21:23:30.556Z,8.73
2018-06-24T21:25:58.996Z,6.87
2018-06-24T21:28:27.474Z,15.00
2018-06-24T21:30:56.241Z,9.53
2018-06-24T21:33:24.846Z,11.20
2018-06-24T21:35:53.347Z,9.17
2018-06-24T21:38:21.870Z,8.50
2018-06-24T21:40:50.760Z,12.77
2018-06-24T21:43:19.489Z,8.57
2018-06-24T21:45:48.224Z,9.67
2018-06-24T21:48:16.830Z,12.57
2018-06-24T21:50:45.450Z,9.80
2018-06-24T21:53:13.970Z,11.17
2018-06-24T21:55:42.524Z,8.80
2018-06-24T21:58:11.104Z,10.70
2018-06-24T22:00:39.950Z,10.43
2018-06-24T22:03:09.165Z,9.03
2018-06-24T22:05:37.722Z,10.77
2018-06-24T22:08:06.384Z,10.80
2018-06-24T22:10:35.305Z,10.57
2018-06-24T22:13:04.500Z,10.63
2018-06-24T22:15:33.002Z,9.13
2018-06-24T22:18:01.590Z,10.57
2018-06-24T22:20:30.141Z,12.00
2018-06-24T22:22:58.676Z,10.97
2018-06-24T22:25:27.202Z,15.57
2018-06-24T22:27:56.015Z,10.50
2018-06-24T22:30:24.639Z,11.07
2018-06-24T22:32:53.092Z,11.73
2018-06-24T22:35:21.638Z,9.37
2018-06-24T22:37:50.136Z,13.33
2018-06-24T22:40:19.381Z,12.50
2018-06-24T22:42:47.863Z,9.87
2018-06-24T22:45:16.360Z,11.97
2018-06-24T22:47:45.135Z,10.23
2018-06-24T22:50:13.670Z,12.53
2018-06-24T22:52:42.334Z,10.60
2018-06-24T22:55:10.822Z,9.23
2018-06-24T22:57:39.650Z,11.97
2018-06-24T23:00:11.798Z,13.67
2018-06-24T23:02:40.932Z,11.23
2018-06-24T23:05:10.053Z,10.27
2018-06-24T23:07:39.375Z,11.90
2018-06-24T23:10:08.236Z,16.27
2018-06-24T23:12:36.696Z,13.80
2018-06-24T23:15:06.338Z,10.17
2018-06-24T23:17:34.976Z,9.77
2018-06-24T23:20:03.580Z,11.83
2018-06-24T23:22:33.581Z,13.60
2018-06-24T23:25:02.049Z,14.40
2018-06-24T23:27:30.548Z,8.63
2018-06-24T23:29:59.284Z,11.87
2018-06-24T23:32:28.570Z,15.00
2018-06-24T23:34:57.452Z,12.17
2018-06-24T23:37:26.245Z,13.03
2018-06-24T23:39:55.126Z,13.40
2018-06-24T23:42:23.546Z,10.93
2018-06-24T23:44:52.315Z,15.30
2018-06-24T23:47:20.845Z,13.23
2018-06-24T23:49:49.559Z,14.33
2018-06-24T23:52:18.408Z,13.60
2018-06-24T23:54:46.848Z,17.60
2018-06-24T23:57:15.432Z,13.70
2018-06-24T23:59:44.553Z,15.33
